This is the latest recevied weather packets stored in our database for station/object IU5GBO-13. If no packets are shown the sender has not sent any weather packets the latest 10 day(s).
| Time | Temp. | Humidity | Pressure | Rain* | Wind** | Luminosity | Snow |
|---|---|---|---|---|---|---|---|
| 1777886177 | 19.44° C | 58% | 1020.8 hPa | - | - | - | - |
| 1777885578 | 19.44° C | 57% | 1020.7 hPa | - | - | - | - |
| 1777884977 | 20° C | 58% | 1020.8 hPa | - | - | - | - |
| 1777884378 | 18.89° C | 61% | 1020.8 hPa | - | - | - | - |
| 1777883777 | 18.89° C | 61% | 1020.8 hPa | - | - | - | - |
| 1777883177 | 18.89° C | 61% | 1020.8 hPa | - | - | - | - |
| 1777882577 | 18.89° C | 60% | 1020.7 hPa | - | - | - | - |
| 1777881977 | 18.89° C | 60% | 1020.8 hPa | - | - | - | - |
| 1777881377 | 18.89° C | 61% | 1020.6 hPa | - | - | - | - |
| 1777880778 | 18.33° C | 61% | 1020.6 hPa | - | - | - | - |
| 1777880177 | 18.33° C | 63% | 1020.5 hPa | - | - | - | - |
| 1777879577 | 17.78° C | 64% | 1020.5 hPa | - | - | - | - |
| 1777878978 | 16.67° C | 68% | 1020.5 hPa | - | - | - | - |
| 1777878378 | 16.11° C | 69% | 1020.5 hPa | - | - | - | - |
| 1777877777 | 15.56° C | 70% | 1020.4 hPa | - | - | - | - |
| 1777877178 | 15.56° C | 72% | 1020.2 hPa | - | - | - | - |
| 1777876577 | 15° C | 73% | 1020.3 hPa | - | - | - | - |
| 1777875977 | 14.44° C | 74% | 1020.2 hPa | - | - | - | - |
| 1777875378 | 14.44° C | 75% | 1020.3 hPa | - | - | - | - |
| 1777874777 | 13.89° C | 75% | 1020.2 hPa | - | - | - | - |
| 1777873577 | 13.89° C | 75% | 1020.2 hPa | - | - | - | - |
| 1777872977 | 13.89° C | 74% | 1020.1 hPa | - | - | - | - |
| 1777872377 | 13.89° C | 75% | 1020 hPa | - | - | - | - |
| 1777871778 | 13.33° C | 76% | 1020 hPa | - | - | - | - |
| 1777871177 | 13.33° C | 76% | 1020 hPa | - | - | - | - |
* Rain since midnight (hover to see other rain measurements)
** Current wind speed in m/s (hover to see current wind gust speed)